Impacts TAF Board
For situational awareness. Not to be used for flight planning purposes.
IDs:

KDFW - Dallas-Ft Worth Intl, TX, US

Issued at 2101 UTC 18 Nov 2018
Updated at 2303 UTC 18 Nov 2018
Potential Impact None Slight Moderate High
Time2253Z 19/00Z 19/01Z 19/02Z 19/03Z 19/04Z 19/05Z 19/06Z 19/07Z 19/08Z 19/09Z 19/10Z 19/11Z 19/12Z>>
Type OBS PRVL PRVL PRVL PRVL PRVL PRVL PRVL PRVL PRVL PRVL PRVL PRVL PRVL
VIS 10 >6 >6 >6 >6 >6 >6 >6 >6 >6 >6 >6 >6 >6
CIG 23 250 250 250 250 250 250 250 250 250 250 250 250 250
Cover OVC BKN BKN BKN BKN BKN BKN BKN BKN BKN BKN BKN BKN BKN
FltCat MVFR VFR VFR VFR VFR VFR VFR VFR VFR VFR VFR VFR VFR VFR
WX -- -- -- -- -- -- -- -- -- -- -- -- -- --
WDir 340 340 340 340 340 340 340 340 340 340 340 340 340 340
WSpd 11 7 7 7 7 7 7 7 7 7 7 7 7 7
WGst -- -- -- -- -- -- -- -- -- -- -- -- -- --
Raw TAF
KDFW 182101Z 1821/1924 34012KT P6SM OVC022
  FM190000 34007KT P6SM BKN250


Raw METAR
KDFW 182253Z 34011KT 10SM OVC023 05/M01 A3024 RMK AO2 SLP239 T00501006 $
KDFW 182153Z 33010KT 10SM OVC022 06/M01 A3023 RMK AO2 SLP237 T00561006 $
KDFW 182053Z 35012KT 10SM OVC021 06/M01 A3024 RMK AO2 SLP240 T00561006 56019 $

METAR Board
Radar Display
Forecast Discussion
For situational awareness. Not to be used for flight planning purposes.